Latest Weather Observations for Deniliquin

IDN60801

Issued at 6:23 pm EST Saturday 9 May 2026 (issued every 10 minutes, with the page automatically refreshed every 10 minutes)

About weather observations | Map of weather stations | Latest weather observations for NSW | Other Formats
Station Details ID: 074258 Name: DENILIQUIN AIRPORT AWS Lat: -35.56 Lon: 144.95 Height: 94.0 m
Data from the previous 72 hours. | See also: Recent months at Deniliquin
Date/Time
EST
Temp
°C
App
Temp
°C
Dew
Point
°C
Rel
Hum
%
Delta-T
°C
Wind Press
QNH
hPa
Press
MSL
hPa
Rain since
9am
mm
Dir  Spd
km/h
Gust
km/h
Spd
kts
Gust
kts
09/06:00pm 13.1 11.9 8.2 72 2.4 SSW 4 6 2 3 1026.2 1026.3 0.0
09/05:30pm 14.0 11.9 8.2 68 2.9 SSW 9 11 5 6 1025.8 1025.9 0.0
09/05:00pm 16.1 13.2 8.3 60 3.9 SSW 13 17 7 9 1025.7 1025.8 0.0
09/04:30pm 16.7 13.1 8.4 58 4.3 SSW 17 24 9 13 1025.6 1025.7 0.0
09/04:00pm 16.9 13.4 8.6 58 4.3 SSW 17 26 9 14 1025.7 1025.8 0.0
09/03:30pm 16.7 12.7 8.1 57 4.4 SW 19 24 10 13 1025.6 1025.7 0.0
09/03:00pm 17.2 12.6 8.1 55 4.6 SSW 22 30 12 16 1025.6 1025.7 0.0
09/02:30pm 17.7 13.4 8.0 53 5.0 SW 20 28 11 15 1025.6 1025.7 0.0
09/02:00pm 17.2 13.6 8.4 56 4.5 S 17 24 9 13 1025.6 1025.7 0.0
09/01:30pm 16.9 12.9 8.3 57 4.4 SSW 19 26 10 14 1025.8 1025.9 0.0
09/01:00pm 17.0 13.5 8.9 59 4.2 SSW 17 24 9 13 1026.2 1026.3 0.0
09/12:30pm 16.9 13.1 9.1 60 4.1 SSW 19 26 10 14 1026.6 1026.6 0.0
09/12:00pm 16.8 12.9 8.8 59 4.1 SSW 19 24 10 13 1027.1 1027.1 0.0
09/11:30am 16.1 12.2 8.8 62 3.8 SSW 19 26 10 14 1027.3 1027.3 0.0
09/11:00am 15.8 11.7 8.8 63 3.6 SSW 20 28 11 15 1027.6 1027.6 0.0
09/10:30am 15.5 11.6 9.4 67 3.2 SSW 20 28 11 15 1027.7 1027.7 0.0
09/10:00am 14.6 10.9 9.6 72 2.6 SSW 19 24 10 13 1027.7 1027.7 0.0
09/09:30am 13.0 9.3 9.6 80 1.7 SSW 19 24 10 13 1027.9 1027.9 0.0
09/09:00am 11.5 8.3 10.1 91 0.7 SW 17 20 9 11 1027.9 1027.9 0.0
09/08:30am 9.8 6.8 9.2 96 0.3 SW 15 19 8 10 1027.6 1027.6 0.0
09/08:00am 7.8 5.1 7.2 96 0.3 WSW 11 15 6 8 1027.2 1027.2 0.0
09/07:30am 6.2 2.7 5.6 96 0.3 WSW 13 13 7 7 1027.2 1027.2 0.0
09/07:00am 5.0 2.1 4.4 96 0.3 SW 9 11 5 6 1026.8 1026.8 0.0
09/06:30am 4.9 1.6 4.3 96 0.3 SW 11 13 6 7 1026.6 1026.6 0.0
09/06:00am 5.4 2.1 4.8 96 0.3 WSW 11 13 6 7 1026.1 1026.2 0.0
09/05:30am 5.4 2.1 4.7 95 0.3 WSW 11 13 6 7 1026.0 1026.1 0.0
09/05:00am 6.0 3.6 5.3 95 0.3 WSW 7 9 4 5 1025.7 1025.8 0.0
09/04:30am 6.4 4.1 5.7 95 0.3 SW 7 9 4 5 1025.6 1025.7 0.0
09/04:00am 6.7 3.7 6.1 96 0.3 SW 11 15 6 8 1025.3 1025.4 0.0
09/03:30am 5.8 2.2 5.1 95 0.3 SW 13 17 7 9 1025.4 1025.5 0.0
09/03:00am 5.9 2.7 5.0 94 0.4 SW 11 13 6 7 1025.5 1025.6 0.0
09/02:30am 7.2 4.6 6.3 94 0.4 SSW 9 9 5 5 1025.7 1025.8 0.0
09/02:00am 7.2 4.2 6.0 92 0.5 SW 11 15 6 8 1025.7 1025.8 0.0
09/01:30am 8.6 4.8 7.5 93 0.5 SW 17 19 9 10 1025.5 1025.6 0.0
09/01:00am 7.7 4.4 6.3 91 0.6 SW 13 15 7 8 1025.5 1025.6 0.0
09/12:30am 8.9 5.4 7.0 88 0.9 SSW 15 19 8 10 1025.6 1025.7 0.0
09/12:00am 8.9 5.8 7.2 89 0.8 SSW 13 15 7 8 1025.5 1025.6 0.0
 
Date/Time
EST
Temp
°C
App
Temp
°C
Dew
Point
°C
Rel
Hum
%
Delta-T
°C
Wind Press
QNH
hPa
Press
MSL
hPa
Rain since
9am
mm
Dir  Spd
km/h
Gust
km/h
Spd
kts
Gust
kts
08/11:30pm 9.7 6.6 7.3 85 1.1 SW 13 17 7 9 1025.5 1025.6 0.0
08/11:00pm 10.3 6.5 7.7 84 1.2 SW 17 22 9 12 1025.6 1025.7 0.0
08/10:30pm 10.6 6.9 7.8 83 1.4 SW 17 19 9 10 1025.7 1025.8 0.0
08/10:00pm 10.8 7.0 7.7 81 1.5 SSW 17 20 9 11 1025.7 1025.8 0.0
08/09:30pm 9.7 6.6 7.3 85 1.1 SSW 13 15 7 8 1025.4 1025.5 0.0
08/09:00pm 10.2 7.1 7.3 82 1.4 SW 13 17 7 9 1025.3 1025.4 0.0
08/08:30pm 10.3 6.8 7.4 82 1.4 SW 15 17 8 9 1025.1 1025.2 0.0
08/08:00pm 10.1 6.6 7.3 83 1.3 SW 15 17 8 9 1024.8 1024.9 0.0
08/07:30pm 10.2 7.1 7.1 81 1.5 WSW 13 17 7 9 1024.7 1024.8 0.0
08/07:00pm 11.7 8.3 7.8 77 1.9 WSW 15 17 8 9 1024.5 1024.6 0.0
08/06:30pm 12.2 9.2 7.7 74 2.2 WSW 13 15 7 8 1024.3 1024.4 0.0
08/06:00pm 14.0 10.7 8.0 67 3.0 SW 15 17 8 9 1023.9 1024.0 0.0
08/05:30pm 15.0 11.7 8.0 63 3.5 SW 15 20 8 11 1023.6 1023.7 0.0
08/05:00pm 17.1 12.1 8.0 55 4.6 WSW 24 33 13 18 1023.4 1023.5 0.0
08/04:30pm 17.8 12.7 7.5 51 5.2 SW 24 35 13 19 1023.3 1023.4 0.0
08/04:00pm 17.3 12.3 7.9 54 4.8 SW 24 32 13 17 1023.3 1023.4 0.0
08/03:30pm 17.9 13.4 8.5 54 4.9 SW 22 28 12 15 1023.3 1023.4 0.0
08/03:00pm 17.4 12.1 8.3 55 4.7 SW 26 33 14 18 1023.1 1023.2 0.0
08/02:30pm 18.0 12.4 8.6 54 4.9 SW 28 35 15 19 1023.1 1023.2 0.0
08/02:00pm 17.8 11.4 8.4 54 4.8 SW 32 39 17 21 1023.3 1023.4 0.0
08/01:30pm 17.6 11.0 8.5 55 4.7 SW 33 46 18 25 1023.3 1023.4 0.0
08/01:00pm 18.1 11.7 8.7 54 4.9 SW 32 41 17 22 1023.6 1023.7 0.0
08/12:30pm 16.8 10.5 8.8 59 4.1 WSW 32 43 17 23 1024.0 1024.1 0.0
08/12:00pm 16.9 10.6 9.1 60 4.0 WSW 32 39 17 21 1024.1 1024.2 0.0
08/11:30am 15.9 9.5 8.6 62 3.7 WSW 32 41 17 22 1024.4 1024.5 0.0
08/11:00am 15.8 10.0 9.5 66 3.3 WSW 30 41 16 22 1024.4 1024.5 0.0
08/10:30am 15.8 9.7 9.7 67 3.2 WSW 32 39 17 21 1024.7 1024.8 0.0
08/10:00am 15.1 9.4 9.9 71 2.7 WSW 30 39 16 21 1024.7 1024.8 0.0
08/09:30am 13.7 8.4 9.7 77 2.1 W 28 35 15 19 1024.9 1025.0 0.0
08/09:00am 13.0 8.0 9.4 79 1.8 W 26 35 14 19 1024.6 1024.7 0.0
08/08:30am 11.9 7.9 9.1 83 1.4 W 20 30 11 16 1024.4 1024.5 0.0
08/08:00am 10.8 7.3 8.6 86 1.1 WNW 17 24 9 13 1024.3 1024.4 0.0
08/07:30am 10.1 6.5 8.4 89 0.8 W 17 22 9 12 1024.2 1024.3 0.0
08/07:00am 9.6 5.3 7.9 89 0.8 W 20 24 11 13 1024.0 1024.1 0.0
08/06:30am 10.0 5.3 7.8 86 1.1 W 22 28 12 15 1024.0 1024.1 0.0
08/06:00am 9.2 4.8 7.3 88 0.9 W 20 28 11 15 1023.9 1024.0 0.0
08/05:30am 8.9 5.0 6.9 87 0.9 WNW 17 22 9 12 1023.5 1023.6 0.0
08/05:00am 8.6 4.9 6.4 86 1.0 WNW 15 20 8 11 1023.3 1023.4 0.0
08/04:30am 8.6 3.9 6.2 85 1.1 WNW 20 26 11 14 1022.9 1023.0 0.0
08/04:00am 8.7 4.0 6.2 84 1.1 WNW 20 30 11 16 1022.8 1022.9 0.0
08/03:30am 9.0 4.3 5.9 81 1.4 WNW 20 28 11 15 1022.9 1023.0 0.0
08/03:00am 9.5 4.0 5.9 78 1.7 W 24 30 13 16 1023.2 1023.3 0.0
08/02:30am 10.4 5.3 5.8 73 2.1 W 22 30 12 16 1023.5 1023.6 0.0
08/02:00am 10.6 5.0 5.6 71 2.3 W 24 33 13 18 1023.6 1023.7 0.0
08/01:30am 10.7 5.5 5.5 70 2.4 W 22 28 12 15 1024.0 1024.1 0.0
08/01:00am 10.9 5.3 5.2 68 2.6 W 24 33 13 18 1024.3 1024.4 0.0
08/12:30am 11.0 5.3 4.9 66 2.8 W 24 33 13 18 1024.3 1024.4 0.0
08/12:00am 11.0 6.1 4.9 66 2.8 W 20 30 11 16 1024.4 1024.5 0.0
 
Date/Time
EST
Temp
°C
App
Temp
°C
Dew
Point
°C
Rel
Hum
%
Delta-T
°C
Wind Press
QNH
hPa
Press
MSL
hPa
Rain since
9am
mm
Dir  Spd
km/h
Gust
km/h
Spd
kts
Gust
kts
07/11:30pm 10.9 5.1 4.6 65 2.9 W 24 32 13 17 1024.7 1024.8 0.0
07/11:00pm 10.8 5.8 4.7 66 2.7 W 20 28 11 15 1024.8 1024.9 0.0
07/10:30pm 10.7 5.7 4.4 65 2.8 W 20 28 11 15 1024.9 1025.0 0.0
07/10:00pm 10.5 5.6 4.0 64 2.9 W 19 28 10 15 1025.0 1025.1 0.0
07/09:30pm 10.5 5.5 3.5 62 3.1 WNW 19 24 10 13 1024.8 1024.9 0.0
07/09:00pm 10.3 5.3 3.6 63 2.9 WNW 19 24 10 13 1024.9 1025.0 0.0
07/08:30pm 9.5 4.8 3.3 65 2.7 W 17 22 9 12 1024.9 1025.0 0.0
07/08:00pm 9.2 5.3 3.4 67 2.5 WNW 13 17 7 9 1024.7 1024.8 0.0
07/07:30pm 9.9 6.0 3.4 64 2.8 WNW 13 15 7 8 1024.8 1024.9 0.0
07/07:00pm 9.8 5.9 3.5 65 2.7 WNW 13 15 7 8 1024.7 1024.8 0.0
07/06:30pm 10.7 6.8 3.5 61 3.2 W 13 15 7 8 1024.6 1024.7 0.0
07/06:00pm 10.9 6.2 3.2 59 3.4 WSW 17 20 9 11 1024.4 1024.5 0.0
07/05:30pm 11.5 5.4 2.8 55 3.8 WSW 24 32 13 17 1024.2 1024.3 0.0
07/05:00pm 12.1 5.2 2.3 51 4.2 WSW 28 35 15 19 1024.1 1024.2 0.0
07/04:30pm 13.0 5.7 2.3 48 4.7 WSW 30 43 16 23 1024.1 1024.2 0.0
07/04:00pm 12.8 5.1 2.1 48 4.6 WSW 32 41 17 22 1023.9 1024.0 0.0
07/03:30pm 13.5 5.7 1.5 44 5.2 SW 32 43 17 23 1023.9 1024.0 0.0
07/03:00pm 14.4 6.5 2.3 44 5.3 SW 33 46 18 25 1024.0 1024.1 0.0
07/02:30pm 13.0 4.5 1.0 44 5.1 SW 35 44 19 24 1024.0 1024.1 0.0
07/02:00pm 12.8 4.0 1.2 45 4.9 WSW 37 46 20 25 1024.0 1024.1 0.0
07/01:30pm 12.8 4.1 1.8 47 4.8 SW 37 46 20 25 1024.1 1024.2 0.0
07/01:00pm 12.7 4.0 2.0 48 4.6 SW 37 46 20 25 1024.0 1024.1 0.0
07/12:30pm 12.8 4.2 2.4 49 4.6 SW 37 52 20 28 1024.3 1024.4 0.0
07/12:00pm 12.4 3.4 2.3 50 4.4 SW 39 52 21 28 1024.5 1024.6 0.0
07/11:30am 11.8 3.4 1.7 50 4.3 SW 35 50 19 27 1024.6 1024.7 0.0
07/11:00am 10.9 2.2 1.7 53 3.9 SW 37 48 20 26 1024.7 1024.8 0.0
07/10:30am 10.6 2.9 2.4 57 3.5 SW 32 43 17 23 1024.6 1024.7 0.0
07/10:00am 8.9 1.0 2.5 64 2.7 WSW 33 43 18 23 1024.4 1024.5 0.0
07/09:30am 8.2 0.4 2.7 68 2.3 WSW 33 41 18 22 1024.1 1024.2 0.0
07/09:00am 7.7 0.5 3.0 72 2.0 WSW 30 37 16 20 1023.9 1024.0 0.2
07/08:30am 6.4 0.7 2.9 78 1.5 WSW 22 30 12 16 1023.5 1023.6 0.2
07/08:00am 5.5 -0.6 2.7 82 1.1 W 24 32 13 17 1023.1 1023.2 0.2
07/07:30am 4.8 -0.6 2.3 84 1.0 W 20 26 11 14 1022.6 1022.7 0.2
07/07:00am 4.6 -0.8 2.3 85 0.9 W 20 24 11 13 1022.1 1022.2 0.2
07/06:30am 5.0 -0.4 2.7 85 0.9 WSW 20 26 11 14 1021.8 1021.9 0.2
07/06:00am 4.9 -0.4 2.9 87 0.8 WSW 20 24 11 13 1021.6 1021.6 0.2
07/05:30am 4.9 0.2 3.1 88 0.7 WSW 17 22 9 12 1021.3 1021.3 0.2
07/05:00am 5.1 0.8 3.1 87 0.8 WSW 15 20 8 11 1021.1 1021.1 0.2
07/04:30am 5.5 0.1 2.5 81 1.2 WSW 20 24 11 13 1020.8 1020.8 0.2
07/04:00am 5.9 0.5 2.7 80 1.3 WSW 20 26 11 14 1020.6 1020.6 0.2
07/03:30am 6.1 1.0 2.9 80 1.3 WSW 19 24 10 13 1020.5 1020.5 0.2
07/03:00am 6.6 1.2 2.7 76 1.6 WSW 20 26 11 14 1020.6 1020.6 0.2
07/02:30am 7.4 1.8 3.6 77 1.6 WSW 22 26 12 14 1020.5 1020.5 0.2
07/02:00am 8.1 2.9 5.4 83 1.2 WSW 22 28 12 15 1020.4 1020.4 0.2
07/01:30am 9.0 3.2 6.1 82 1.3 WSW 26 33 14 18 1020.2 1020.2 0.2
07/01:00am 9.2 3.9 6.8 85 1.1 SW 24 30 13 16 1019.9 1019.9 0.2
07/12:38am 8.7 1.3 6.8 88 0.9 SW 35 54 19 29 1019.8 1019.8 0.2
07/12:30am 8.9 0.3 6.5 85 1.1 SW 41 52 22 28 1019.9 1019.9 0.2
07/12:07am 10.4 4.0 8.5 88 0.9 SW 32 52 17 28 1019.4 1019.4 0.2
07/12:00am 10.7 4.8 9.0 89 0.8 SW 30 39 16 21 1019.3 1019.3 0.2
 
Date/Time
EST
Temp
°C
App
Temp
°C
Dew
Point
°C
Rel
Hum
%
Delta-T
°C
Wind Press
QNH
hPa
Press
MSL
hPa
Rain since
9am
mm
Dir  Spd
km/h
Gust
km/h
Spd
kts
Gust
kts
06/11:30pm 12.6 5.8 9.1 79 1.8 WSW 35 44 19 24 1018.9 1018.9 0.0
06/11:00pm 12.4 8.1 10.6 89 0.9 WNW 24 33 13 18 1018.6 1018.6 0.0
06/10:30pm 12.1 8.6 10.3 89 0.9 NW 19 26 10 14 1018.6 1018.6 0.0
06/10:00pm 12.4 8.3 10.1 86 1.2 NW 22 32 12 17 1018.9 1018.9 0.0
06/09:30pm 13.2 7.4 9.6 79 1.8 WNW 30 43 16 23 1019.2 1019.2 0.0
06/09:00pm 14.5 10.4 8.0 65 3.2 NNW 19 26 10 14 1018.8 1018.8 0.0
06/08:30pm 14.4 10.7 8.1 66 3.2 NNW 17 24 9 13 1019.0 1019.0 0.0
06/08:00pm 14.5 10.9 8.2 66 3.2 NNW 17 22 9 12 1019.1 1019.1 0.0
06/07:30pm 14.1 10.4 7.9 66 3.1 NNW 17 20 9 11 1019.1 1019.1 0.0
06/07:00pm 14.1 11.2 8.3 68 2.9 NNW 13 15 7 8 1019.2 1019.2 0.0
06/06:30pm 12.7 10.2 8.4 75 2.1 NNW 11 15 6 8 1019.3 1019.3 0.0

Other formats

Comma delimited format used in spreadsheet applications
http://www.bom.gov.au/fwo/IDN60801/IDN60801.95869.axf

JavaScript Object Notation format (JSON) in row-major order
http://www.bom.gov.au/fwo/IDN60801/IDN60801.95869.json

Data quality

Most of these data are generated automatically and are frequently updated. Quality checks on data are not normally performed. It is possible for incorrect values to appear. Refer to information at About Latest Weather Observations and please check the disclaimer before using these data.